createdAt,value
2019-03-19T14:39:04.897Z,1022.16
2019-03-19T14:40:04.542Z,1022.08
2019-03-19T14:41:04.531Z,1022.18
2019-03-19T14:42:04.558Z,1022.22
2019-03-19T14:43:04.526Z,1022.20
2019-03-19T14:44:04.539Z,1022.14
2019-03-19T14:45:04.502Z,1022.14
2019-03-19T14:46:04.501Z,1022.16
2019-03-19T15:25:56.215Z,1021.88
2019-03-19T15:26:56.113Z,1021.89
2019-03-19T15:27:56.167Z,1021.86
2019-03-19T15:28:56.122Z,1021.84
2019-03-19T15:29:56.075Z,1021.86
2019-03-19T15:30:56.090Z,1021.86
2019-03-19T15:31:56.054Z,1021.84
2019-03-19T15:32:56.146Z,1021.81
2019-03-19T15:33:56.098Z,1021.84
2019-03-19T15:34:56.033Z,1021.86
2019-03-19T15:35:56.018Z,1021.92
2019-03-19T15:36:55.996Z,1021.92
2019-03-19T15:37:56.272Z,1021.91
2019-03-19T15:38:55.985Z,1021.89
2019-03-19T15:39:55.981Z,1021.86
2019-03-19T15:40:55.978Z,1021.83
2019-03-19T15:41:55.956Z,1021.89
2019-03-19T15:42:55.971Z,1021.85
2019-03-19T15:43:55.930Z,1021.85
2019-03-19T15:44:56.034Z,1021.82
2019-03-19T15:45:55.955Z,1021.86
2019-03-19T15:46:55.900Z,1021.80
2019-03-19T15:47:55.935Z,1021.84
2019-03-19T15:48:55.923Z,1021.87
2019-03-19T15:49:55.888Z,1021.86
2019-03-19T15:50:55.857Z,1021.83
2019-03-19T15:51:55.850Z,1021.91
2019-03-19T15:52:55.845Z,1021.87
2019-03-19T15:53:55.879Z,1021.85
2019-03-19T15:54:55.824Z,1021.88
2019-03-19T15:55:55.835Z,1021.89
2019-03-19T15:56:55.894Z,1021.87
2019-03-19T15:57:56.520Z,1021.84
2019-03-19T15:58:55.850Z,1021.84
2019-03-19T15:59:55.762Z,1021.79
2019-03-19T16:00:55.752Z,1021.88
2019-03-19T16:01:55.773Z,1021.87
2019-03-19T16:02:55.729Z,1021.90
2019-03-19T16:03:55.862Z,1021.84
2019-03-19T16:04:55.723Z,1021.80
2019-03-19T16:05:55.701Z,1021.87
2019-03-19T16:06:55.692Z,1021.93
2019-03-19T16:07:55.679Z,1021.88
2019-03-19T16:08:55.695Z,1021.87
2019-03-19T16:09:55.658Z,1021.90
2019-03-19T16:10:55.679Z,1021.95
2019-03-19T16:11:55.663Z,1021.89
2019-03-19T16:12:55.706Z,1021.92
2019-03-19T16:13:56.173Z,1021.95
2019-03-19T16:14:55.609Z,1021.97
2019-03-19T16:15:55.602Z,1022.04
2019-03-19T16:16:55.626Z,1022.09
2019-03-19T16:17:55.575Z,1021.98
2019-03-19T16:18:55.565Z,1021.98
2019-03-19T16:19:55.579Z,1022.02
2019-03-19T16:20:55.553Z,1021.96
2019-03-19T16:21:55.566Z,1021.99
2019-03-19T16:22:55.520Z,1022.03
2019-03-19T16:23:55.520Z,1022.02
2019-03-19T16:24:55.510Z,1021.99
2019-03-19T16:25:55.490Z,1022.02
2019-03-19T16:26:56.508Z,1022.00
2019-03-19T16:27:55.511Z,1022.05
2019-03-19T16:28:55.553Z,1022.06
2019-03-19T16:29:55.454Z,1022.04
2019-03-19T16:30:55.445Z,1022.04
2019-03-19T16:31:55.501Z,1022.05
2019-03-19T16:32:55.431Z,1022.04
2019-03-19T16:33:55.404Z,1022.10
2019-03-19T16:34:55.442Z,1022.09
2019-03-19T16:35:55.418Z,1022.01
2019-03-19T16:36:55.413Z,1022.11
2019-03-19T16:37:55.408Z,1022.07
2019-03-19T16:38:55.351Z,1022.19
2019-03-19T16:39:55.345Z,1022.22
2019-03-19T16:40:55.372Z,1022.12
2019-03-19T16:41:55.343Z,1022.17
2019-03-19T16:42:55.322Z,1022.10
2019-03-19T16:43:55.316Z,1022.09
2019-03-19T16:44:55.303Z,1022.12
2019-03-19T16:45:55.319Z,1022.14
2019-03-19T16:46:55.287Z,1022.15
2019-03-19T16:47:55.282Z,1022.15
2019-03-19T16:48:55.251Z,1022.16
2019-03-19T16:49:55.268Z,1022.15
2019-03-19T16:50:56.337Z,1022.23
2019-03-19T16:51:55.239Z,1022.24
2019-03-19T16:52:55.233Z,1022.25
2019-03-19T16:53:55.195Z,1022.25
2019-03-19T16:54:55.178Z,1022.20
2019-03-19T16:55:55.189Z,1022.30
2019-03-19T16:56:55.179Z,1022.32
2019-03-19T16:57:55.185Z,1022.26
2019-03-19T16:58:55.165Z,1022.30
2019-03-19T16:59:55.141Z,1022.33
2019-03-19T17:00:55.150Z,1022.38
2019-03-19T17:02:01.831Z,1022.35
2019-03-19T17:02:56.101Z,1022.37
2019-03-19T17:03:55.114Z,1022.32
2019-03-19T17:04:55.071Z,1022.43
2019-03-19T17:05:55.090Z,1022.39
2019-03-19T17:06:55.064Z,1022.39
2019-03-19T17:07:55.080Z,1022.37
2019-03-19T17:08:55.030Z,1022.45
2019-03-19T17:09:55.102Z,1022.51
2019-03-19T17:10:55.696Z,1022.41
2019-03-19T17:11:55.018Z,1022.49
2019-03-19T17:12:55.056Z,1022.50
2019-03-19T17:13:54.990Z,1022.51
2019-03-19T17:14:55.002Z,1022.49
2019-03-19T17:15:54.968Z,1022.48
2019-03-19T17:16:55.005Z,1022.50
2019-03-19T17:17:54.971Z,1022.49
2019-03-19T17:18:54.945Z,1022.50
2019-03-19T17:19:54.911Z,1022.49
2019-03-19T17:20:54.904Z,1022.51
2019-03-19T17:21:54.900Z,1022.52
2019-03-19T17:22:55.225Z,1022.54
2019-03-19T17:23:54.936Z,1022.61
2019-03-19T17:24:54.869Z,1022.51
2019-03-19T17:25:54.879Z,1022.56
2019-03-19T17:26:54.850Z,1022.60
2019-03-19T17:27:54.830Z,1022.62
2019-03-19T17:28:54.842Z,1022.59
2019-03-19T17:29:54.811Z,1022.61
2019-03-19T17:30:54.848Z,1022.64
2019-03-19T17:31:54.865Z,1022.67
2019-03-19T17:32:54.770Z,1022.66
2019-03-19T17:33:54.791Z,1022.70
2019-03-19T17:34:54.766Z,1022.71
2019-03-19T17:35:54.742Z,1022.71
2019-03-19T17:36:54.789Z,1022.72
2019-03-19T17:37:54.783Z,1022.65
2019-03-19T17:38:54.708Z,1022.71
2019-03-19T17:39:54.702Z,1022.74
2019-03-19T17:40:54.699Z,1022.65
2019-03-19T17:41:54.719Z,1022.70
2019-03-19T17:42:54.690Z,1022.76
2019-03-19T17:43:54.660Z,1022.80
2019-03-19T17:44:54.668Z,1022.79
2019-03-19T17:45:54.741Z,1022.81
2019-03-19T17:46:54.737Z,1022.83
2019-03-19T17:47:54.621Z,1022.79
2019-03-19T17:48:54.606Z,1022.87
2019-03-19T17:49:54.591Z,1022.88
2019-03-19T17:50:54.634Z,1022.86
2019-03-19T17:51:54.667Z,1022.83
2019-03-19T17:52:54.657Z,1022.93
2019-03-19T17:53:54.555Z,1022.89
2019-03-19T17:54:54.545Z,1022.94
2019-03-19T17:55:54.563Z,1022.93
2019-03-19T17:56:54.528Z,1022.88
2019-03-19T17:57:54.525Z,1022.95
2019-03-19T17:58:54.508Z,1022.95
2019-03-19T17:59:55.226Z,1022.94
2019-03-19T18:00:54.504Z,1022.90
2019-03-19T18:01:54.464Z,1022.95
2019-03-19T18:02:54.466Z,1022.93
2019-03-19T18:03:54.476Z,1022.95
2019-03-19T18:04:54.514Z,1022.92
2019-03-19T18:05:54.485Z,1022.96
2019-03-19T18:06:54.499Z,1022.97
2019-03-19T18:07:54.445Z,1023.00
2019-03-19T18:08:54.446Z,1022.98
2019-03-19T18:09:54.401Z,1023.00
2019-03-19T18:10:54.422Z,1023.05
2019-03-19T18:11:54.367Z,1023.02
2019-03-19T18:12:54.356Z,1023.01
2019-03-19T18:13:54.341Z,1023.08
2019-03-19T18:14:54.325Z,1023.05
2019-03-19T18:15:54.351Z,1023.16
2019-03-19T18:16:54.302Z,1023.08
2019-03-19T18:17:54.303Z,1023.11
2019-03-19T18:18:54.335Z,1023.03
2019-03-19T18:19:54.271Z,1023.15
2019-03-19T18:20:54.305Z,1023.11
2019-03-19T18:21:54.263Z,1023.23
2019-03-19T18:22:54.238Z,1023.14
2019-03-19T18:23:54.269Z,1023.18
2019-03-19T18:24:54.221Z,1023.18
2019-03-19T18:25:54.213Z,1023.25
2019-03-19T18:26:54.221Z,1023.22
2019-03-19T18:27:54.193Z,1023.23
2019-03-19T18:28:54.211Z,1023.26
2019-03-19T18:29:55.567Z,1023.25
2019-03-19T18:30:54.176Z,1023.18
2019-03-19T18:31:54.143Z,1023.27
2019-03-19T18:32:54.158Z,1023.23
2019-03-19T18:33:54.136Z,1023.22
2019-03-19T18:34:54.118Z,1023.21
2019-03-19T18:35:56.270Z,1023.30
2019-03-19T18:36:54.100Z,1023.19
2019-03-19T18:37:54.121Z,1023.27
2019-03-19T18:38:54.079Z,1023.27
2019-03-19T18:39:54.065Z,1023.24
2019-03-19T18:40:54.057Z,1023.26
2019-03-19T18:41:54.037Z,1023.30
2019-03-19T18:42:54.054Z,1023.26
2019-03-19T18:43:54.043Z,1023.34
2019-03-19T18:44:54.025Z,1023.36
2019-03-19T18:45:54.007Z,1023.32
2019-03-19T18:46:54.003Z,1023.28
2019-03-19T18:47:54.024Z,1023.32
2019-03-19T18:48:53.966Z,1023.39
2019-03-19T18:49:53.955Z,1023.39
2019-03-19T18:50:53.955Z,1023.38
2019-03-19T18:51:53.935Z,1023.41
2019-03-19T18:52:53.953Z,1023.40
2019-03-19T18:53:53.936Z,1023.43
2019-03-19T18:54:53.924Z,1023.35
2019-03-19T18:55:53.894Z,1023.43
2019-03-19T18:56:53.890Z,1023.41
2019-03-19T18:57:53.908Z,1023.42
2019-03-19T18:58:53.856Z,1023.46
2019-03-19T18:59:53.852Z,1023.38
2019-03-19T19:00:53.879Z,1023.40
2019-03-19T19:01:53.839Z,1023.39
2019-03-19T19:02:53.836Z,1023.43
2019-03-19T19:03:53.817Z,1023.45
2019-03-19T19:04:53.818Z,1023.41
2019-03-19T19:05:53.817Z,1023.47
2019-03-19T19:06:53.806Z,1023.50
2019-03-19T19:07:53.838Z,1023.42
2019-03-19T19:08:53.804Z,1023.56
2019-03-19T19:09:53.754Z,1023.50
2019-03-19T19:10:53.755Z,1023.49
2019-03-19T19:11:53.750Z,1023.53
2019-03-19T19:12:53.720Z,1023.56
2019-03-19T19:13:53.773Z,1023.56
2019-03-19T19:14:53.730Z,1023.56
2019-03-19T19:15:53.688Z,1023.56
2019-03-19T19:16:53.690Z,1023.59
2019-03-19T19:17:53.695Z,1023.57
2019-03-19T19:18:53.682Z,1023.60
2019-03-19T19:19:53.658Z,1023.57
2019-03-19T19:20:53.661Z,1023.59
2019-03-19T19:21:53.649Z,1023.60
2019-03-19T19:22:53.618Z,1023.60
2019-03-19T19:23:53.617Z,1023.65
2019-03-19T19:24:53.583Z,1023.62
2019-03-19T19:25:53.680Z,1023.68
2019-03-19T19:26:53.564Z,1023.61
2019-03-19T19:27:53.782Z,1023.65
2019-03-19T19:28:53.572Z,1023.66
2019-03-19T19:29:53.544Z,1023.67
2019-03-19T19:30:53.520Z,1023.70
2019-03-19T19:31:53.540Z,1023.65
2019-03-19T19:33:01.463Z,1023.69
2019-03-19T19:33:54.547Z,1023.69
2019-03-19T19:34:53.515Z,1023.66
2019-03-19T19:35:53.489Z,1023.70
2019-03-19T19:36:53.470Z,1023.68
2019-03-19T19:37:53.474Z,1023.69
2019-03-19T19:38:53.500Z,1023.69
2019-03-19T19:39:53.435Z,1023.75
2019-03-19T19:40:53.487Z,1023.79
2019-03-19T19:41:53.421Z,1023.73
2019-03-19T19:42:53.431Z,1023.84
2019-03-19T19:43:53.418Z,1023.77
2019-03-19T19:44:53.813Z,1023.79
2019-03-19T19:45:53.360Z,1023.75
2019-03-19T19:46:53.348Z,1023.76
2019-03-19T19:47:53.495Z,1023.74
2019-03-19T19:48:53.750Z,1023.74
2019-03-19T19:49:53.310Z,1023.81
2019-03-19T19:50:53.338Z,1023.80
2019-03-19T19:51:53.288Z,1023.85
2019-03-19T19:52:53.333Z,1023.76
2019-03-19T19:53:53.272Z,1023.88
2019-03-19T19:54:53.311Z,1023.87
2019-03-19T19:55:53.254Z,1023.87
2019-03-19T19:56:53.241Z,1023.87
2019-03-19T19:57:53.249Z,1023.85
2019-03-19T19:58:53.237Z,1023.84
2019-03-19T19:59:53.252Z,1023.96
2019-03-19T20:00:53.209Z,1023.88
2019-03-19T20:01:53.210Z,1023.90
2019-03-19T20:02:54.731Z,1023.91
2019-03-19T20:03:53.179Z,1023.96
2019-03-19T20:05:02.486Z,1023.99
2019-03-19T20:05:54.174Z,1024.00
2019-03-19T20:06:53.136Z,1024.03
2019-03-19T20:07:53.160Z,1024.02
2019-03-19T20:08:53.140Z,1024.09
2019-03-19T20:09:53.115Z,1024.03
2019-03-19T20:10:53.093Z,1024.09
2019-03-19T20:11:53.113Z,1024.07
2019-03-19T20:12:53.123Z,1024.04
2019-03-19T20:13:53.064Z,1024.12
2019-03-19T20:14:53.051Z,1024.12
2019-03-19T20:15:53.035Z,1024.06
2019-03-19T20:16:53.042Z,1024.08
2019-03-19T20:17:53.067Z,1024.08
2019-03-19T20:18:53.001Z,1024.12
2019-03-19T20:19:52.993Z,1024.08
2019-03-19T20:20:52.974Z,1024.16
2019-03-19T20:21:53.011Z,1024.10
2019-03-19T20:22:52.963Z,1024.11
2019-03-19T20:23:52.957Z,1024.08
2019-03-19T20:24:52.940Z,1024.10
2019-03-19T20:25:52.955Z,1024.09
2019-03-19T20:26:52.984Z,1024.11
2019-03-19T20:27:52.953Z,1024.11
2019-03-19T20:28:52.909Z,1024.19
2019-03-19T20:29:52.884Z,1024.15
2019-03-19T20:30:52.868Z,1024.18
2019-03-19T20:31:52.912Z,1024.19
2019-03-19T20:32:52.887Z,1024.19
2019-03-19T20:33:52.850Z,1024.19
2019-03-19T20:34:52.837Z,1024.17
2019-03-19T20:35:52.819Z,1024.25
2019-03-19T20:36:52.802Z,1024.29
2019-03-19T20:37:52.821Z,1024.23
2019-03-19T20:38:52.789Z,1024.19
2019-03-19T20:39:52.766Z,1024.29
2019-03-19T20:40:52.761Z,1024.21
2019-03-19T20:41:52.752Z,1024.30
2019-03-19T20:42:52.776Z,1024.34
2019-03-19T20:43:52.741Z,1024.34
2019-03-19T20:44:52.748Z,1024.27
2019-03-19T20:45:52.715Z,1024.36
2019-03-19T20:46:52.734Z,1024.31
2019-03-19T20:47:52.690Z,1024.34
2019-03-19T20:48:52.710Z,1024.35
2019-03-19T20:49:52.703Z,1024.36
2019-03-19T20:50:52.662Z,1024.40
2019-03-19T20:51:52.672Z,1024.41
2019-03-19T20:52:52.667Z,1024.44
2019-03-19T20:53:52.654Z,1024.54
2019-03-19T20:54:52.616Z,1024.46
2019-03-19T20:55:52.656Z,1024.51
2019-03-19T20:56:52.641Z,1024.51
2019-03-19T20:57:52.579Z,1024.53
2019-03-19T20:58:52.594Z,1024.48
2019-03-19T20:59:52.590Z,1024.52
